St. David, AZ

2:43 PM MST on July 30, 2016 (GMT -0700)
Dragoon Mountain Ranch 3 | | Change Station

Elev 4580 ft 31.86 °N, 110.08 °W | Updated 11 seconds ago

Partly Cloudy
Partly Cloudy
88.5 °F
Feels Like 88 °F
N
4.0
Wind Variable Wind from WNW
Gusts 8.0 mph

Today
High -- | Low -- °F
--% Chance of Precip.
Yesterday
High -- | Low -- °F
Precip. -- in
Pressure 30.07 in
Visibility 10.0 miles
Clouds Few 31000 ft
Heat Index 88 °F
Dew Point 59 °F
Humidity 37%
Rainfall 0.00 in
Snow Depth Not available.
5:34 AM 7:18 PM
Waning Crescent, 11% visible
SPECI KFHU 302116Z AUTO 26005KT 10SM FEW310 31/12 A3007 RMK AO2 PRESFR
Pressure 30.07 in
Visibility 10.0 miles
Clouds Few 31000 ft
Heat Index 88 °F
Dew Point 59 °F
Humidity 37%
Rainfall 0.00 in
Snow Depth Not available.
5:34 AM 7:18 PM
Waning Crescent, 11% visible
SPECI KFHU 302116Z AUTO 26005KT 10SM FEW310 31/12 A3007 RMK AO2 PRESFR

10-Day Weather Forecast

Almanac

Astronomy

Jul. 30, 2016 Rise Set
Actual Time
Civil Twilight
Nautical Twilight
Astronomical Twilight
Moon
Length of Visible Light
Length of Day
Tomorrow will be .
, % of the Moon is Illuminated

Today's Extremes

State Highs State Lows

Community

WunderPhotos

Upload Photos

1,928,657 photos uploaded!

WunderBlog® & News

Nearby

Air Quality

  Air Quality AQ Index Pollutant
Not available.

Snow Depth

Station Depth Elevation

Earthquake Activity

City Distance Mag. Time & Date
Minimum magnitude displayed is 2.5.

Coastal Water Temperatures

Place Temperature

Stations

Nearby Weather Stations

Station Location Temp. Windchill Dew Point Humidity Wind Precip. Elev Updated Type
                   

Watches & Warnings

There are currently no watches in effect.